createdAt,value
2019-01-18T00:02:04.271Z,96230.36
2019-01-18T00:04:35.515Z,96220.87
2019-01-18T00:07:06.622Z,96230.20
2019-01-18T00:09:38.845Z,96235.67
2019-01-18T00:12:09.889Z,96240.88
2019-01-18T00:14:40.951Z,96242.11
2019-01-18T00:17:12.066Z,96239.16
2019-01-18T00:19:43.394Z,96239.85
2019-01-18T00:22:14.473Z,96240.50
2019-01-18T00:24:45.695Z,96243.06
2019-01-18T00:27:16.750Z,96243.52
2019-01-18T00:29:48.068Z,96248.69
2019-01-18T00:32:19.037Z,96251.87
2019-01-18T00:34:50.040Z,96255.09
2019-01-18T00:37:21.025Z,96259.50
2019-01-18T00:39:52.061Z,96257.28
2019-01-18T00:42:24.252Z,96257.21
2019-01-18T00:44:55.248Z,96262.83
2019-01-18T00:47:26.497Z,96262.06
2019-01-18T00:49:57.499Z,96264.84
2019-01-18T00:52:28.554Z,96265.91
2019-01-18T00:54:59.558Z,96267.14
2019-01-18T00:57:30.677Z,96267.89
2019-01-18T01:00:01.681Z,96274.16
2019-01-18T01:02:33.064Z,96281.42
2019-01-18T01:05:04.421Z,96288.13
2019-01-18T01:07:35.554Z,96295.59
2019-01-18T01:10:08.163Z,96300.45
2019-01-18T01:12:39.384Z,96304.41
2019-01-18T01:15:14.498Z,96301.36
2019-01-18T01:17:45.984Z,96316.77
2019-01-18T01:20:20.707Z,96312.45
2019-01-18T01:22:53.077Z,96321.05
2019-01-18T01:25:24.225Z,96317.25
2019-01-18T01:27:55.202Z,96330.07
2019-01-18T01:30:27.243Z,96332.24
2019-01-18T01:32:58.524Z,96342.09
2019-01-18T01:35:29.696Z,96347.44
2019-01-18T01:38:00.755Z,96352.28
2019-01-18T01:40:31.813Z,96356.20
2019-01-18T01:43:02.863Z,96364.45
2019-01-18T01:45:34.261Z,96367.22
2019-01-18T01:48:05.422Z,96371.99
2019-01-18T01:50:36.454Z,96376.95
2019-01-18T01:53:07.497Z,96382.14
2019-01-18T01:55:39.558Z,96378.50
2019-01-18T01:58:10.711Z,96380.71
2019-01-18T02:00:41.895Z,96383.61
2019-01-18T02:03:13.195Z,96380.47
2019-01-18T02:05:44.196Z,96385.15
2019-01-18T02:08:15.162Z,96388.97
2019-01-18T02:10:46.390Z,96390.64
2019-01-18T02:13:17.944Z,96387.14
2019-01-18T02:15:49.413Z,96396.19
2019-01-18T02:18:20.526Z,96396.19
2019-01-18T02:20:52.157Z,96400.78
2019-01-18T02:23:23.524Z,96405.62
2019-01-18T02:25:54.679Z,96411.84
2019-01-18T02:28:26.211Z,96415.18
2019-01-18T02:30:58.110Z,96413.68
2019-01-18T02:33:29.605Z,96414.30
2019-01-18T02:36:00.929Z,96416.59
2019-01-18T02:38:31.983Z,96413.20
2019-01-18T02:41:02.983Z,96413.63
2019-01-18T02:43:33.955Z,96415.47
2019-01-18T02:46:05.293Z,96424.38
2019-01-18T02:48:36.543Z,96426.62
2019-01-18T02:51:07.886Z,96427.77
2019-01-18T02:53:39.662Z,96427.13
2019-01-18T02:56:10.657Z,96429.19
2019-01-18T02:58:41.633Z,96432.91
2019-01-18T03:01:12.890Z,96433.47
2019-01-18T03:03:43.942Z,96432.75
2019-01-18T03:06:15.299Z,96439.92
2019-01-18T03:08:46.423Z,96442.77
2019-01-18T03:11:17.416Z,96443.97
2019-01-18T03:13:48.544Z,96445.73
2019-01-18T03:16:19.977Z,96446.75
2019-01-18T03:18:51.412Z,96449.33
2019-01-18T03:21:22.490Z,96450.05
2019-01-18T03:23:54.744Z,96451.02
2019-01-18T03:26:25.691Z,96451.33
2019-01-18T03:28:57.078Z,96447.73
2019-01-18T03:31:28.059Z,96455.98
2019-01-18T03:33:59.372Z,96456.39
2019-01-18T03:36:30.729Z,96459.69
2019-01-18T03:39:01.689Z,96468.54
2019-01-18T03:41:33.023Z,96473.13
2019-01-18T03:44:04.122Z,96471.00
2019-01-18T03:46:35.337Z,96468.34
2019-01-18T03:49:07.805Z,96467.72
2019-01-18T03:51:39.763Z,96468.95
2019-01-18T03:54:11.165Z,96462.20
2019-01-18T03:56:42.218Z,96465.91
2019-01-18T03:59:13.675Z,96471.84
2019-01-18T04:01:44.953Z,96473.98
2019-01-18T04:04:16.536Z,96467.21
2019-01-18T04:06:47.598Z,96472.52
2019-01-18T04:09:18.832Z,96472.80
2019-01-18T04:11:50.057Z,96477.48
2019-01-18T04:14:21.009Z,96479.61
2019-01-18T04:16:53.015Z,96484.79
2019-01-18T04:19:25.876Z,96486.55
2019-01-18T04:21:56.927Z,96481.44
2019-01-18T04:24:27.898Z,96488.23
2019-01-18T04:26:58.891Z,96486.36
2019-01-18T04:29:30.267Z,96490.41
2019-01-18T04:32:01.938Z,96490.13
2019-01-18T04:34:33.269Z,96495.19
2019-01-18T04:37:05.558Z,96499.88
2019-01-18T04:39:37.175Z,96497.25
2019-01-18T04:42:08.240Z,96498.49
2019-01-18T04:44:39.657Z,96495.53
2019-01-18T04:47:10.852Z,96500.59
2019-01-18T04:49:42.396Z,96502.74
2019-01-18T04:52:13.455Z,96506.35
2019-01-18T04:54:44.724Z,96514.62
2019-01-18T04:57:16.237Z,96507.12
2019-01-18T04:59:47.792Z,96513.13
2019-01-18T05:02:18.779Z,96519.00
2019-01-18T05:04:49.770Z,96526.55
2019-01-18T05:07:20.751Z,96527.34
2019-01-18T05:09:51.737Z,96532.94
2019-01-18T05:12:23.130Z,96539.61
2019-01-18T05:14:55.586Z,96537.61
2019-01-18T05:17:26.813Z,96536.66
2019-01-18T05:19:59.400Z,96542.89
2019-01-18T05:22:30.750Z,96548.41
2019-01-18T05:25:01.713Z,96551.05
2019-01-18T05:27:32.929Z,96558.34
2019-01-18T05:30:04.933Z,96560.95
2019-01-18T05:32:36.476Z,96571.67
2019-01-18T05:35:09.214Z,96574.29
2019-01-18T05:37:40.274Z,96583.77
2019-01-18T05:40:14.292Z,96584.91
2019-01-18T05:42:45.274Z,96587.06
2019-01-18T05:45:18.476Z,96592.71
2019-01-18T05:47:49.842Z,96590.25
2019-01-18T05:50:31.079Z,96591.83
2019-01-18T05:53:05.934Z,96595.42
2019-01-18T05:55:37.311Z,96594.30
2019-01-18T05:58:08.681Z,96601.06
2019-01-18T06:00:59.070Z,96601.25
2019-01-18T06:03:31.645Z,96590.02
2019-01-18T06:06:03.006Z,96585.30
2019-01-18T06:08:34.044Z,96599.52
2019-01-18T06:11:05.645Z,96609.59
2019-01-18T06:13:37.548Z,96606.12
2019-01-18T06:16:08.509Z,96616.27
2019-01-18T06:18:40.135Z,96621.14
2019-01-18T06:21:11.478Z,96621.32
2019-01-18T06:23:42.626Z,96618.27
2019-01-18T06:26:13.988Z,96621.00
2019-01-18T06:28:45.314Z,96623.47
2019-01-18T06:31:17.321Z,96633.75
2019-01-18T06:33:48.289Z,96628.83
2019-01-18T06:36:19.323Z,96630.13
2019-01-18T06:38:50.521Z,96627.52
2019-01-18T06:41:43.635Z,96630.80
2019-01-18T06:44:14.931Z,96630.11
2019-01-18T06:46:47.517Z,96633.20
2019-01-18T06:49:19.746Z,96639.73
2019-01-18T06:51:50.862Z,96643.95
2019-01-18T06:54:21.845Z,96641.63
2019-01-18T06:56:52.797Z,96643.11
2019-01-18T06:59:23.844Z,96653.08
2019-01-18T07:01:56.001Z,96650.14
2019-01-18T07:04:27.557Z,96651.75
2019-01-18T07:06:58.775Z,96653.86
2019-01-18T07:09:30.260Z,96653.03
2019-01-18T07:12:01.473Z,96659.55
2019-01-18T07:14:32.460Z,96656.47
2019-01-18T07:17:03.876Z,96665.23
2019-01-18T07:19:34.947Z,96669.13
2019-01-18T07:22:06.116Z,96674.84
2019-01-18T07:24:37.390Z,96678.06
2019-01-18T07:27:09.084Z,96691.44
2019-01-18T07:29:40.067Z,96688.34
2019-01-18T07:32:11.169Z,96681.84
2019-01-18T07:34:42.476Z,96682.50
2019-01-18T07:37:14.143Z,96672.56
2019-01-18T07:39:45.444Z,96679.38
2019-01-18T07:42:16.721Z,96696.83
2019-01-18T07:44:47.818Z,96701.51
2019-01-18T07:47:18.923Z,96693.36
2019-01-18T07:49:50.228Z,96696.46
2019-01-18T07:52:21.542Z,96692.53
2019-01-18T07:54:52.599Z,96706.38
2019-01-18T07:57:23.564Z,96712.26
2019-01-18T07:59:55.812Z,96713.73
2019-01-18T08:02:26.776Z,96713.75
2019-01-18T08:04:57.762Z,96724.45
2019-01-18T08:07:29.504Z,96714.50
2019-01-18T08:10:00.733Z,96722.64
2019-01-18T08:12:31.740Z,96721.45
2019-01-18T08:15:03.060Z,96726.52
2019-01-18T08:17:34.094Z,96728.08
2019-01-18T08:20:08.053Z,96731.12
2019-01-18T08:22:39.397Z,96727.55
2019-01-18T08:25:12.421Z,96733.91
2019-01-18T08:27:43.837Z,96735.90
2019-01-18T08:30:18.611Z,96734.30
2019-01-18T08:32:50.078Z,96740.95
2019-01-18T08:35:22.626Z,96752.88
2019-01-18T08:37:53.780Z,96748.33
2019-01-18T08:40:46.955Z,96744.06
2019-01-18T08:43:20.223Z,96755.67
2019-01-18T08:46:01.181Z,96753.70
2019-01-18T08:48:32.221Z,96751.11
2019-01-18T08:51:03.935Z,96758.44
2019-01-18T08:53:35.108Z,96750.91
2019-01-18T08:56:08.187Z,96755.77
2019-01-18T08:58:40.273Z,96760.97
2019-01-18T09:01:11.373Z,96763.41
2019-01-18T09:03:42.343Z,96772.86
2019-01-18T09:06:13.428Z,96772.88
2019-01-18T09:08:44.674Z,96775.31
2019-01-18T09:11:16.256Z,96769.27
2019-01-18T09:13:47.334Z,96772.40
2019-01-18T09:16:18.473Z,96784.91
2019-01-18T09:18:50.101Z,96790.33
2019-01-18T09:21:21.387Z,96791.28
2019-01-18T09:23:52.724Z,96788.38
2019-01-18T09:26:23.688Z,96790.00
2019-01-18T09:28:55.971Z,96800.41
2019-01-18T09:31:27.351Z,96801.72
2019-01-18T09:33:58.678Z,96803.84
2019-01-18T09:36:29.958Z,96809.36
2019-01-18T09:39:01.019Z,96805.45
2019-01-18T09:41:33.176Z,96805.95
2019-01-18T09:44:04.725Z,96808.88
2019-01-18T09:46:35.769Z,96818.48
2019-01-18T09:49:06.909Z,96820.61
2019-01-18T09:51:37.879Z,96823.52
2019-01-18T09:54:09.260Z,96820.76
2019-01-18T09:56:40.625Z,96828.72
2019-01-18T09:59:12.282Z,96821.23
2019-01-18T10:01:49.117Z,96821.22
2019-01-18T10:04:15.941Z,96818.93
2019-01-18T10:06:46.964Z,96821.19
2019-01-18T10:09:18.186Z,96827.56
2019-01-18T10:11:49.433Z,96828.84
2019-01-18T10:14:21.185Z,96822.00
2019-01-18T10:16:52.418Z,96821.02
2019-01-18T10:19:23.479Z,96817.60
2019-01-18T10:21:54.528Z,96818.59
2019-01-18T10:24:26.676Z,96814.84
2019-01-18T10:26:57.903Z,96816.81
2019-01-18T10:29:28.873Z,96823.16
2019-01-18T10:31:59.939Z,96818.77
2019-01-18T10:34:30.999Z,96816.94
2019-01-18T10:37:02.119Z,96808.64
2019-01-18T10:39:33.170Z,96806.17
2019-01-18T10:42:04.917Z,96806.20
2019-01-18T10:44:35.894Z,96807.98
2019-01-18T10:47:07.495Z,96799.66
2019-01-18T10:49:38.717Z,96811.63
2019-01-18T10:52:09.682Z,96812.11
2019-01-18T10:54:40.852Z,96805.58
2019-01-18T10:57:11.888Z,96810.17
2019-01-18T10:59:42.938Z,96813.42
2019-01-18T11:02:14.236Z,96803.95
2019-01-18T11:04:45.611Z,96812.92
2019-01-18T11:07:16.683Z,96817.16
2019-01-18T11:09:47.893Z,96816.52
2019-01-18T11:12:19.095Z,96817.84
2019-01-18T11:14:50.369Z,96815.06
2019-01-18T11:17:21.494Z,96814.91
2019-01-18T11:19:52.477Z,96813.09
2019-01-18T11:22:23.445Z,96803.45
2019-01-18T11:24:54.788Z,96802.94
2019-01-18T11:27:26.257Z,96805.84
2019-01-18T11:29:57.535Z,96806.52
2019-01-18T11:32:28.878Z,96806.21
2019-01-18T11:35:00.101Z,96806.54
2019-01-18T11:37:31.127Z,96807.52
2019-01-18T11:40:02.527Z,96801.46
2019-01-18T11:42:34.193Z,96803.08
2019-01-18T11:45:06.938Z,96798.69
2019-01-18T11:47:39.368Z,96794.46
2019-01-18T11:50:15.037Z,96792.81
2019-01-18T11:52:47.332Z,96793.80
2019-01-18T11:55:18.941Z,96789.28
2019-01-18T11:57:50.233Z,96790.52
2019-01-18T12:00:24.262Z,96790.48
2019-01-18T12:02:56.497Z,96787.86
2019-01-18T12:05:27.731Z,96786.67
2019-01-18T12:07:58.843Z,96782.46
2019-01-18T12:10:32.105Z,96781.36
2019-01-18T12:13:04.285Z,96777.91
2019-01-18T12:15:35.655Z,96778.70
2019-01-18T12:18:08.059Z,96779.01
2019-01-18T12:20:39.459Z,96782.56
2019-01-18T12:23:10.835Z,96785.17
2019-01-18T12:25:42.019Z,96779.85
2019-01-18T12:28:13.501Z,96776.13
2019-01-18T12:30:44.908Z,96774.22
2019-01-18T12:33:16.320Z,96765.48
2019-01-18T12:35:47.579Z,96769.25
2019-01-18T12:38:18.618Z,96764.09
2019-01-18T12:40:49.787Z,96763.27
2019-01-18T12:43:20.756Z,96766.39
2019-01-18T12:45:52.026Z,96761.16
2019-01-18T12:48:23.083Z,96766.66
2019-01-18T12:50:54.519Z,96760.94
2019-01-18T12:53:27.109Z,96763.78
2019-01-18T12:55:58.331Z,96765.93
2019-01-18T12:58:30.443Z,96758.95
2019-01-18T13:01:01.555Z,96757.06
2019-01-18T13:03:33.009Z,96758.99
2019-01-18T13:06:04.474Z,96761.72
2019-01-18T13:08:35.991Z,96767.27
2019-01-18T13:11:06.991Z,96769.02
2019-01-18T13:13:38.583Z,96767.11
2019-01-18T13:16:33.711Z,96766.41
2019-01-18T13:19:12.796Z,96766.50
2019-01-18T13:21:44.194Z,96763.57
2019-01-18T13:24:15.399Z,96763.34
2019-01-18T13:26:46.907Z,96768.10
2019-01-18T13:29:18.353Z,96759.94
2019-01-18T13:31:49.785Z,96767.41
2019-01-18T13:34:21.054Z,96767.41
2019-01-18T13:36:52.730Z,96761.36
2019-01-18T13:39:23.893Z,96764.14
2019-01-18T13:41:55.262Z,96764.81
2019-01-18T13:44:26.768Z,96765.78
2019-01-18T13:46:58.256Z,96766.72
2019-01-18T13:49:29.401Z,96766.77
2019-01-18T13:52:00.892Z,96767.57
2019-01-18T13:54:31.946Z,96770.71
2019-01-18T13:57:03.269Z,96766.51
2019-01-18T13:59:34.244Z,96769.09
2019-01-18T14:02:06.011Z,96771.73
2019-01-18T14:04:37.295Z,96770.11
2019-01-18T14:07:08.662Z,96774.98
2019-01-18T14:09:40.047Z,96770.28
2019-01-18T14:12:11.307Z,96769.59
2019-01-18T14:14:42.811Z,96771.09
2019-01-18T14:17:13.889Z,96767.36
2019-01-18T14:19:45.424Z,96771.58
2019-01-18T14:22:16.486Z,96773.03
2019-01-18T14:24:47.787Z,96771.98
2019-01-18T14:27:19.667Z,96776.51
2019-01-18T14:29:50.837Z,96779.44
2019-01-18T14:32:22.096Z,96768.73
2019-01-18T14:34:53.627Z,96764.48
2019-01-18T14:37:24.687Z,96772.45
2019-01-18T14:39:57.219Z,96768.97
2019-01-18T14:42:28.254Z,96766.15
2019-01-18T14:44:59.281Z,96770.06
2019-01-18T14:47:30.436Z,96770.47
2019-01-18T14:50:01.395Z,96764.94
2019-01-18T14:52:32.606Z,96767.86
2019-01-18T14:55:03.889Z,96771.31
2019-01-18T14:57:35.251Z,96777.33
2019-01-18T15:00:11.728Z,96775.03
2019-01-18T15:02:43.154Z,96775.69
2019-01-18T15:05:14.715Z,96777.06
2019-01-18T15:07:46.055Z,96773.35
2019-01-18T15:10:19.800Z,96774.30
2019-01-18T15:12:54.358Z,96777.37
2019-01-18T15:15:25.837Z,96776.72
2019-01-18T15:17:58.156Z,96769.52
2019-01-18T15:20:31.397Z,96779.17
2019-01-18T15:23:02.758Z,96776.58
2019-01-18T15:25:34.054Z,96771.19
2019-01-18T15:28:05.393Z,96767.92
2019-01-18T15:30:36.757Z,96770.56
2019-01-18T15:33:09.344Z,96773.52
2019-01-18T15:35:41.439Z,96770.97
2019-01-18T15:38:13.299Z,96768.20
2019-01-18T15:40:47.821Z,96776.34
2019-01-18T15:43:22.746Z,96774.40
2019-01-18T15:45:54.036Z,96786.58
2019-01-18T15:48:25.379Z,96781.05
2019-01-18T15:50:56.803Z,96784.00
2019-01-18T15:53:28.116Z,96777.35
2019-01-18T15:55:59.106Z,96772.14
2019-01-18T15:58:30.197Z,96773.78
2019-01-18T16:01:01.705Z,96776.08
2019-01-18T16:03:32.883Z,96771.53
2019-01-18T16:06:04.667Z,96771.22
2019-01-18T16:08:35.742Z,96773.55
2019-01-18T16:11:06.866Z,96769.13
2019-01-18T16:13:38.527Z,96768.64
2019-01-18T16:16:31.004Z,96761.98
2019-01-18T16:19:02.335Z,96766.69
2019-01-18T16:21:33.304Z,96771.72
2019-01-18T16:24:05.054Z,96768.78
2019-01-18T16:26:36.459Z,96779.09
2019-01-18T16:29:08.064Z,96771.73
2019-01-18T16:31:39.396Z,96768.66
2019-01-18T16:34:10.683Z,96765.05
2019-01-18T16:36:41.964Z,96767.67
2019-01-18T16:39:13.004Z,96770.47
2019-01-18T16:41:44.121Z,96766.25
2019-01-18T16:44:15.169Z,96769.51
2019-01-18T16:46:46.454Z,96765.42
2019-01-18T16:49:17.492Z,96758.14
2019-01-18T16:51:48.698Z,96758.45
2019-01-18T16:54:20.276Z,96759.59
2019-01-18T16:56:51.237Z,96765.44
2019-01-18T16:59:22.611Z,96757.46
2019-01-18T17:01:53.901Z,96757.46
2019-01-18T17:04:25.191Z,96758.12
2019-01-18T17:06:56.294Z,96757.97
2019-01-18T17:09:27.859Z,96758.13
2019-01-18T17:11:59.070Z,96761.69
2019-01-18T17:14:30.635Z,96757.16
2019-01-18T17:17:01.610Z,96759.77
2019-01-18T17:19:33.599Z,96758.62
2019-01-18T17:22:04.755Z,96761.39
2019-01-18T17:24:35.810Z,96757.48
2019-01-18T17:27:07.091Z,96750.34
2019-01-18T17:29:38.374Z,96751.30
2019-01-18T17:32:09.336Z,96753.75
2019-01-18T17:34:41.650Z,96746.76
2019-01-18T17:37:20.705Z,96746.77
2019-01-18T17:40:27.993Z,96745.78
2019-01-18T17:43:32.151Z,96747.41
2019-01-18T17:46:48.146Z,96750.16
2019-01-18T17:50:05.484Z,96752.80
2019-01-18T17:53:34.515Z,96745.14
2019-01-18T17:56:53.681Z,96740.10
2019-01-18T18:00:20.289Z,96744.95
2019-01-18T18:03:59.959Z,96739.59
2019-01-18T18:07:06.362Z,96742.70
2019-01-18T18:10:16.922Z,96743.02
2019-01-18T18:14:04.860Z,96737.50
2019-01-18T18:17:29.044Z,96742.54
2019-01-18T18:21:17.856Z,96744.80
2019-01-18T18:24:55.019Z,96738.80
2019-01-18T18:28:08.817Z,96738.95
2019-01-18T18:31:36.106Z,96730.17
2019-01-18T18:35:21.874Z,96732.30
2019-01-18T18:38:47.801Z,96722.68
2019-01-18T18:42:12.368Z,96727.88
2019-01-18T18:45:56.097Z,96726.94
2019-01-18T18:49:26.500Z,96726.27
2019-01-18T18:53:02.936Z,96734.23
2019-01-18T18:56:24.116Z,96724.30
2019-01-18T18:59:52.626Z,96718.45
2019-01-18T19:03:13.187Z,96714.72
2019-01-18T19:06:56.436Z,96708.37
2019-01-18T19:09:56.028Z,96711.28
2019-01-18T19:13:39.932Z,96708.19
2019-01-18T19:17:11.301Z,96708.20
2019-01-18T19:20:23.518Z,96699.92
2019-01-18T19:23:46.677Z,96700.87
2019-01-18T19:26:37.473Z,96697.33
2019-01-18T19:30:00.405Z,96698.28
2019-01-18T19:33:03.791Z,96697.48
2019-01-18T19:36:12.818Z,96695.67
2019-01-18T19:39:37.325Z,96693.41
2019-01-18T19:42:46.443Z,96692.72
2019-01-18T19:46:08.974Z,96683.80
2019-01-18T19:49:31.547Z,96687.38
2019-01-18T19:52:32.283Z,96683.31
2019-01-18T19:56:06.315Z,96685.60
2019-01-18T19:59:37.426Z,96678.75
2019-01-18T20:02:58.220Z,96672.09
2019-01-18T20:06:53.984Z,96683.32
2019-01-18T20:09:58.967Z,96684.61
2019-01-18T20:13:27.427Z,96688.20
2019-01-18T20:16:50.732Z,96686.89
2019-01-18T20:20:03.947Z,96684.76
2019-01-18T20:23:03.092Z,96688.67
2019-01-18T20:26:25.227Z,96687.86
2019-01-18T20:29:29.239Z,96690.45
2019-01-18T20:33:01.372Z,96692.08
2019-01-18T20:36:00.760Z,96691.73
2019-01-18T20:39:00.934Z,96689.81
2019-01-18T20:42:27.593Z,96682.15
2019-01-18T20:45:53.929Z,96679.25
2019-01-18T20:48:50.205Z,96684.30
2019-01-18T20:52:08.179Z,96677.95
2019-01-18T20:55:29.630Z,96687.52
2019-01-18T20:58:49.571Z,96686.55
2019-01-18T21:02:24.413Z,96682.62
2019-01-18T21:05:31.439Z,96684.91
2019-01-18T21:08:59.495Z,96688.18
2019-01-18T21:12:17.046Z,96686.05
2019-01-18T21:15:41.340Z,96687.65
2019-01-18T21:18:41.998Z,96686.36
2019-01-18T21:22:01.564Z,96689.61
2019-01-18T21:25:21.741Z,96691.87
2019-01-18T21:28:43.746Z,96691.87
2019-01-18T21:32:20.374Z,96682.92
2019-01-18T21:35:45.363Z,96682.61
2019-01-18T21:39:22.561Z,96682.75
2019-01-18T21:42:26.574Z,96680.65
2019-01-18T21:45:40.348Z,96674.13
2019-01-18T21:48:44.329Z,96681.91
2019-01-18T21:51:55.311Z,96685.98
2019-01-18T21:55:15.573Z,96683.86
2019-01-18T21:58:51.035Z,96676.36
2019-01-18T22:02:21.371Z,96686.72
2019-01-18T22:05:55.853Z,96684.71
2019-01-18T22:09:10.859Z,96682.44
2019-01-18T22:12:39.300Z,96689.89
2019-01-18T22:16:05.441Z,96686.23
2019-01-18T22:19:17.814Z,96688.72
2019-01-18T22:22:25.299Z,96682.11
2019-01-18T22:25:43.318Z,96691.41
2019-01-18T22:29:01.771Z,96687.52
2019-01-18T22:32:28.845Z,96687.77
2019-01-18T22:36:01.474Z,96688.52
2019-01-18T22:39:25.955Z,96692.23
2019-01-18T22:42:40.695Z,96694.91
2019-01-18T22:45:39.773Z,96686.45
2019-01-18T22:48:48.377Z,96693.06
2019-01-18T22:51:58.005Z,96695.45
2019-01-18T22:55:22.621Z,96691.11
2019-01-18T22:58:22.371Z,96691.06
2019-01-18T23:01:48.815Z,96682.46
2019-01-18T23:04:55.958Z,96687.89
2019-01-18T23:08:21.641Z,96678.05
2019-01-18T23:11:34.057Z,96675.24
2019-01-18T23:15:16.323Z,96678.69
2019-01-18T23:18:21.518Z,96673.82
2019-01-18T23:21:27.870Z,96667.80
2019-01-18T23:24:25.138Z,96670.21
2019-01-18T23:27:54.065Z,96671.53
2019-01-18T23:30:59.042Z,96662.13
2019-01-18T23:34:04.921Z,96663.16
2019-01-18T23:37:15.304Z,96664.92
2019-01-18T23:40:25.485Z,96655.39
2019-01-18T23:43:21.326Z,96658.14
2019-01-18T23:46:07.594Z,96650.36
2019-01-18T23:49:29.367Z,96650.53
2019-01-18T23:52:43.012Z,96657.96
2019-01-18T23:56:20.311Z,96658.28
2019-01-18T23:59:47.490Z,96655.39
